Time;durP1;ratioP1;P1;durP2;ratioP2;P2;SDS_P1;SDS_P2;PMS_P1;PMS_P2;Temp;Humidity;BMP_temperature;BMP_pressure;BME280_temperature;BME280_humidity;BME280_pressure;Samples;Min_cycle;Max_cycle;Signal;HPM_P1;HPM_P2
2022/11/22 00:01:02;;;;;;;6.82;1.98;;;6.00;99.90;;;;;;4999458;28;20042;-67
2022/11/22 00:03:28;;;;;;;9.98;1.90;;;6.00;99.90;;;;;;5007087;28;20030;-67
2022/11/22 00:05:53;;;;;;;6.72;1.80;;;6.00;99.90;;;;;;5002367;28;20112;-67
2022/11/22 00:08:19;;;;;;;6.57;2.05;;;6.00;99.90;;;;;;4988106;28;20034;-67
2022/11/22 00:10:48;;;;;;;6.32;1.92;;;6.00;99.90;;;;;;4999855;28;20049;-67
2022/11/22 00:13:13;;;;;;;4.45;1.85;;;6.00;99.90;;;;;;4994940;28;20045;-67
2022/11/22 00:15:39;;;;;;;7.00;2.00;;;6.00;99.90;;;;;;4998208;28;20038;-67
2022/11/22 00:18:04;;;;;;;8.13;1.52;;;6.00;99.90;;;;;;4996149;28;20026;-67
2022/11/22 00:20:30;;;;;;;7.35;1.77;;;6.00;99.90;;;;;;5003680;28;20490;-67
2022/11/22 00:22:57;;;;;;;7.78;1.50;;;6.00;99.90;;;;;;4997829;28;20054;-67
2022/11/22 00:25:23;;;;;;;4.55;2.00;;;6.00;99.90;;;;;;4996083;28;20030;-67
2022/11/22 00:27:48;;;;;;;4.38;1.58;;;6.00;99.90;;;;;;4999202;28;20044;-67
2022/11/22 00:30:14;;;;;;;6.88;1.83;;;6.00;99.90;;;;;;4994903;28;20042;-67
2022/11/22 00:32:39;;;;;;;7.45;1.70;;;6.00;99.90;;;;;;4997374;28;20034;-66
2022/11/22 00:35:05;;;;;;;6.95;1.88;;;6.00;99.90;;;;;;4999584;28;20121;-67
2022/11/22 00:37:31;;;;;;;5.68;1.48;;;6.00;99.90;;;;;;4997752;28;20032;-67
2022/11/22 00:39:56;;;;;;;4.22;1.88;;;6.00;99.90;;;;;;4999305;28;20444;-67
2022/11/22 00:42:22;;;;;;;8.90;2.03;;;6.10;99.90;;;;;;4999179;28;20147;-67
2022/11/22 00:44:48;;;;;;;8.82;2.20;;;6.00;99.90;;;;;;5003289;28;20725;-67
2022/11/22 00:47:13;;;;;;;7.40;1.92;;;6.00;99.90;;;;;;4991351;28;20038;-67
2022/11/22 00:49:39;;;;;;;6.28;1.95;;;6.00;99.90;;;;;;5001203;28;20014;-67
2022/11/22 00:52:05;;;;;;;4.43;1.67;;;6.00;99.90;;;;;;4976722;28;20050;-67
2022/11/22 00:54:31;;;;;;;7.97;2.03;;;6.10;99.90;;;;;;4999777;28;20041;-67
2022/11/22 00:56:56;;;;;;;6.60;1.95;;;6.10;99.90;;;;;;5004541;28;20026;-67
2022/11/22 00:59:22;;;;;;;4.45;1.80;;;6.10;99.90;;;;;;5003895;28;20489;-67
2022/11/22 01:01:47;;;;;;;3.88;2.30;;;6.20;99.90;;;;;;4996745;28;20045;-67
2022/11/22 01:04:13;;;;;;;4.28;1.90;;;6.10;99.90;;;;;;5006284;28;20037;-66
2022/11/22 01:06:38;;;;;;;5.20;1.80;;;6.10;99.90;;;;;;4998931;28;20034;-67
2022/11/22 01:09:04;;;;;;;6.10;1.77;;;6.10;99.90;;;;;;5005235;28;20057;-67
2022/11/22 01:11:30;;;;;;;5.57;2.00;;;6.20;99.90;;;;;;4993228;28;20037;-66
2022/11/22 01:13:55;;;;;;;4.07;1.75;;;6.10;99.90;;;;;;5005303;28;20593;-66
2022/11/22 01:16:21;;;;;;;6.20;1.92;;;6.10;99.90;;;;;;5006641;28;20033;-67
2022/11/22 01:18:46;;;;;;;3.80;1.80;;;6.10;99.90;;;;;;5002034;28;20034;-67
2022/11/22 01:21:12;;;;;;;3.65;1.60;;;6.10;99.90;;;;;;5002405;28;20026;-67
2022/11/22 01:23:37;;;;;;;4.97;1.70;;;6.10;99.90;;;;;;4995321;28;20113;-67
2022/11/22 01:26:07;;;;;;;6.53;2.03;;;6.10;99.90;;;;;;5002483;28;20036;-67
2022/11/22 01:28:33;;;;;;;5.85;1.60;;;6.00;99.90;;;;;;5003921;28;20480;-67
2022/11/22 01:30:58;;;;;;;3.35;1.70;;;6.00;99.90;;;;;;5003391;28;20030;-68
2022/11/22 01:33:24;;;;;;;5.30;2.10;;;6.00;99.90;;;;;;4999775;28;20030;-68
2022/11/22 01:35:50;;;;;;;3.80;1.63;;;6.00;99.90;;;;;;5002765;28;20109;-67
2022/11/22 01:38:15;;;;;;;3.00;1.58;;;6.00;99.90;;;;;;4989818;28;20113;-67
2022/11/22 01:40:41;;;;;;;3.45;1.67;;;6.00;99.90;;;;;;4995830;28;20057;-67
2022/11/22 01:43:26;;;;;;;9.45;2.00;;;6.00;99.90;;;;;;5007535;28;20029;-68
2022/11/22 01:46:30;;;;;;;3.95;1.30;;;6.00;99.90;;;;;;4996516;28;20049;-67
2022/11/22 01:49:32;;;;;;;4.00;1.15;;;5.90;99.90;;;;;;4937164;29;20036;-67
2022/11/22 01:52:07;;;;;;;11.38;1.70;;;5.90;99.90;;;;;;4988580;28;20112;-68
2022/11/22 01:54:37;;;;;;;2.08;1.20;;;5.90;99.90;;;;;;5009859;28;20038;-67
2022/11/22 01:57:07;;;;;;;1.38;1.10;;;5.80;99.90;;;;;;4998613;28;20022;-67
2022/11/22 01:59:38;;;;;;;3.60;1.25;;;5.80;99.90;;;;;;4999620;28;20612;-67
2022/11/22 02:02:05;;;;;;;2.97;1.20;;;5.80;99.90;;;;;;5004926;28;20022;-67
2022/11/22 02:04:33;;;;;;;1.40;1.10;;;5.80;99.90;;;;;;5004808;28;20104;-67
2022/11/22 02:07:14;;;;;;;2.28;1.17;;;5.80;99.90;;;;;;4999765;28;20509;-67
2022/11/22 02:09:41;;;;;;;1.23;1.00;;;5.80;99.90;;;;;;4999620;28;20026;-67
2022/11/22 02:12:08;;;;;;;3.00;1.17;;;5.70;99.90;;;;;;5005688;28;20494;-66
2022/11/22 02:14:37;;;;;;;3.55;1.45;;;5.70;99.90;;;;;;4993703;28;20022;-67
2022/11/22 02:17:02;;;;;;;2.95;1.55;;;5.70;99.90;;;;;;5003719;28;20129;-67
2022/11/22 02:19:31;;;;;;;2.97;1.00;;;5.60;99.90;;;;;;4996477;28;20096;-67
2022/11/22 02:22:04;;;;;;;5.82;1.10;;;5.50;99.90;;;;;;5002375;28;20062;-67
2022/11/22 02:24:41;;;;;;;2.75;1.10;;;5.40;99.90;;;;;;4997194;28;20022;-67
2022/11/22 02:27:07;;;;;;;4.63;1.10;;;5.30;99.90;;;;;;5002796;28;20030;-67
2022/11/22 02:29:33;;;;;;;2.75;1.15;;;5.20;99.90;;;;;;4993293;28;20038;-68
2022/11/22 02:31:59;;;;;;;3.10;1.20;;;5.10;99.90;;;;;;5003147;28;20030;-67
2022/11/22 02:34:24;;;;;;;2.35;1.10;;;5.10;99.90;;;;;;4993788;28;20022;-67
2022/11/22 02:36:52;;;;;;;1.52;0.88;;;5.00;99.90;;;;;;4998140;28;20096;-67
2022/11/22 02:39:27;;;;;;;1.55;0.80;;;4.90;99.90;;;;;;4998448;28;20030;-67
2022/11/22 02:41:54;;;;;;;4.25;1.42;;;4.80;99.90;;;;;;5000139;28;20052;-67
2022/11/22 02:44:20;;;;;;;1.08;0.80;;;4.70;99.90;;;;;;4999907;28;20173;-67
2022/11/22 02:46:48;;;;;;;1.98;1.02;;;4.70;99.90;;;;;;5001613;28;20098;-67
2022/11/22 02:49:19;;;;;;;2.78;1.00;;;4.60;99.90;;;;;;5002249;28;20174;-67
2022/11/22 02:51:45;;;;;;;0.98;0.70;;;4.70;99.90;;;;;;4994836;28;20623;-67
2022/11/22 02:54:11;;;;;;;1.55;1.00;;;4.70;99.90;;;;;;4982688;28;20614;-67
2022/11/22 02:56:36;;;;;;;6.90;1.20;;;4.60;99.90;;;;;;5000262;28;20014;-67
2022/11/22 02:59:02;;;;;;;3.40;1.10;;;4.60;99.90;;;;;;4999767;28;20029;-67
2022/11/22 03:01:28;;;;;;;3.08;0.98;;;4.60;99.90;;;;;;4997632;28;20030;-66
2022/11/22 03:03:54;;;;;;;4.53;1.20;;;4.60;99.90;;;;;;4998675;28;20476;-67
2022/11/22 03:06:19;;;;;;;7.35;1.40;;;4.60;99.90;;;;;;4999995;28;20033;-67
2022/11/22 03:08:47;;;;;;;1.30;0.90;;;4.60;99.90;;;;;;4995903;28;20034;-67
2022/11/22 03:11:13;;;;;;;1.52;0.85;;;4.60;99.90;;;;;;4990669;28;20026;-68
2022/11/22 03:13:39;;;;;;;3.17;1.30;;;4.60;99.90;;;;;;4998481;28;20024;-67
2022/11/22 03:16:05;;;;;;;3.55;1.27;;;4.50;99.90;;;;;;5002387;28;20411;-67
2022/11/22 03:18:36;;;;;;;6.30;1.30;;;4.50;99.90;;;;;;5002281;28;20034;-67
2022/11/22 03:21:07;;;;;;;4.85;1.25;;;4.50;99.90;;;;;;4992059;28;20030;-66
2022/11/22 03:23:33;;;;;;;3.50;1.10;;;4.50;99.90;;;;;;5000352;28;20579;-66
2022/11/22 03:25:58;;;;;;;4.75;0.90;;;4.50;99.90;;;;;;4999123;28;20105;-67
2022/11/22 03:28:25;;;;;;;4.43;1.15;;;4.40;99.90;;;;;;5000681;28;20102;-67
2022/11/22 03:30:51;;;;;;;4.97;1.20;;;4.40;99.90;;;;;;5002240;28;20038;-67
2022/11/22 03:33:16;;;;;;;4.68;0.90;;;4.30;99.90;;;;;;5005021;28;20514;-67
2022/11/22 03:35:42;;;;;;;9.25;1.08;;;4.30;99.90;;;;;;4995760;28;20033;-67
2022/11/22 03:38:07;;;;;;;4.63;0.77;;;4.20;99.90;;;;;;4995953;28;20030;-67
2022/11/22 03:40:33;;;;;;;5.35;1.38;;;4.20;99.90;;;;;;5001777;28;20029;-67
2022/11/22 03:43:00;;;;;;;3.00;1.38;;;4.10;99.90;;;;;;4998540;28;20017;-67
2022/11/22 03:45:27;;;;;;;1.80;1.23;;;4.00;99.90;;;;;;5000612;28;20029;-67
2022/11/22 03:47:55;;;;;;;3.30;1.70;;;4.00;99.90;;;;;;5003907;28;20057;-67
2022/11/22 03:50:21;;;;;;;4.55;1.08;;;3.90;99.90;;;;;;4997002;28;20112;-67
2022/11/22 03:52:46;;;;;;;1.77;1.00;;;3.90;99.90;;;;;;4981248;28;20116;-67
2022/11/22 03:55:12;;;;;;;2.63;0.85;;;3.90;99.90;;;;;;5002572;28;20044;-67
2022/11/22 03:57:37;;;;;;;4.60;1.17;;;3.80;99.90;;;;;;5000089;28;20034;-67
2022/11/22 04:00:04;;;;;;;3.10;1.05;;;3.80;99.90;;;;;;4994742;28;20080;-67
2022/11/22 04:02:30;;;;;;;4.30;1.55;;;3.80;99.90;;;;;;5005944;28;20353;-66
2022/11/22 04:04:55;;;;;;;2.30;1.08;;;3.80;99.90;;;;;;5005435;28;20041;-67
2022/11/22 04:07:22;;;;;;;3.00;1.10;;;3.80;99.90;;;;;;4992686;28;20133;-67
2022/11/22 04:09:48;;;;;;;5.53;0.93;;;3.80;99.90;;;;;;4993538;28;20436;-67
2022/11/22 04:12:13;;;;;;;8.13;1.00;;;3.90;99.90;;;;;;4998972;28;20106;-67
2022/11/22 04:23:09;;;;;;;4.47;0.95;;;3.90;99.90;;;;;;5007394;28;20087;-67
2022/11/22 04:25:36;;;;;;;4.03;1.42;;;3.90;99.90;;;;;;5001821;28;20052;-67
2022/11/22 04:28:04;;;;;;;5.70;1.20;;;3.90;99.90;;;;;;5009081;28;20040;-67
2022/11/22 04:33:14;;;;;;;;;;;3.80;99.90;;;;;;4999134;28;20040;-67
2022/11/22 04:35:41;;;;;;;8.75;1.05;;;3.80;99.90;;;;;;5007644;28;20412;-67
2022/11/22 04:38:07;;;;;;;11.00;2.08;;;3.80;99.90;;;;;;4996245;28;20550;-67
2022/11/22 04:40:33;;;;;;;10.75;1.48;;;3.80;99.90;;;;;;4996685;28;20058;-67
2022/11/22 04:45:43;;;;;;;10.35;1.00;;;3.80;99.90;;;;;;4997578;28;20407;-67
2022/11/22 04:48:11;;;;;;;13.38;1.52;;;3.80;99.90;;;;;;5002002;28;20026;-67
2022/11/22 04:53:22;;;;;;;5.95;1.08;;;3.60;99.90;;;;;;4982337;28;20049;-67
2022/11/22 04:55:47;;;;;;;8.27;1.48;;;3.50;99.90;;;;;;5000449;28;20014;-67
2022/11/22 04:58:13;;;;;;;4.13;1.20;;;3.50;99.90;;;;;;4998569;28;20046;-67
2022/11/22 05:00:39;;;;;;;14.05;2.03;;;3.40;99.90;;;;;;5003023;28;20157;-67
2022/11/22 05:03:05;;;;;;;5.13;1.38;;;3.40;99.90;;;;;;4995408;28;20514;-67
2022/11/22 05:05:35;;;;;;;4.00;1.40;;;3.30;99.90;;;;;;5000294;28;20045;-67
2022/11/22 05:08:01;;;;;;;5.15;1.13;;;3.30;99.90;;;;;;4999703;28;20052;-67
2022/11/22 05:10:26;;;;;;;8.77;1.20;;;3.20;99.90;;;;;;5004757;28;20537;-67
2022/11/22 05:12:52;;;;;;;10.45;1.88;;;3.20;99.90;;;;;;4994948;28;20027;-67
2022/11/22 05:15:17;;;;;;;10.75;1.52;;;3.20;99.90;;;;;;4998567;28;20043;-67
2022/11/22 05:17:43;;;;;;;21.70;5.88;;;3.20;99.90;;;;;;5000783;28;20022;-67
2022/11/22 05:20:09;;;;;;;19.10;5.25;;;3.20;99.90;;;;;;4996756;28;20029;-67
2022/11/22 05:25:20;;;;;;;9.88;2.58;;;3.10;99.90;;;;;;4994995;28;20167;-67
2022/11/22 05:27:46;;;;;;;11.68;2.00;;;3.00;99.90;;;;;;4994306;28;20030;-67
2022/11/22 05:30:12;;;;;;;15.07;2.40;;;3.00;99.90;;;;;;4999289;28;20030;-67
2022/11/22 05:32:37;;;;;;;10.35;2.17;;;3.00;99.90;;;;;;4990559;28;20165;-67
2022/11/22 05:35:03;;;;;;;4.82;2.13;;;2.90;99.90;;;;;;4995658;28;20018;-67
2022/11/22 05:37:28;;;;;;;10.15;2.53;;;2.90;99.90;;;;;;5008474;28;20022;-67
2022/11/22 05:39:54;;;;;;;8.90;1.60;;;2.90;99.90;;;;;;4998229;28;20455;-67
2022/11/22 05:42:20;;;;;;;15.65;2.63;;;2.90;99.90;;;;;;5008039;28;20037;-67
2022/11/22 05:44:45;;;;;;;11.57;2.03;;;2.90;99.90;;;;;;4997248;28;20042;-67
2022/11/22 05:47:11;;;;;;;12.88;2.70;;;2.80;99.90;;;;;;5003516;28;20113;-69
2022/11/22 05:49:37;;;;;;;7.80;2.03;;;2.80;99.90;;;;;;5001539;28;20644;-67
2022/11/22 05:52:03;;;;;;;10.98;1.90;;;2.90;99.90;;;;;;4995615;28;20094;-66
2022/11/22 05:54:29;;;;;;;21.75;2.33;;;2.90;99.90;;;;;;4994342;28;20053;-66
2022/11/22 05:56:55;;;;;;;10.52;2.58;;;2.80;99.90;;;;;;5004887;28;20065;-67
2022/11/22 05:59:21;;;;;;;12.68;2.05;;;2.90;99.90;;;;;;5008028;28;20044;-67
2022/11/22 06:01:46;;;;;;;10.38;1.63;;;2.90;99.90;;;;;;5001201;28;20046;-67
2022/11/22 06:04:12;;;;;;;11.68;2.30;;;3.00;99.90;;;;;;5008958;28;20056;-67
2022/11/22 06:06:38;;;;;;;18.08;2.90;;;3.20;99.90;;;;;;5006541;28;20077;-68
2022/11/22 06:09:03;;;;;;;16.80;2.40;;;3.40;99.90;;;;;;4994641;28;20026;-65
2022/11/22 06:11:29;;;;;;;12.68;3.38;;;3.60;99.90;;;;;;4995892;28;20065;-67
2022/11/22 06:14:02;;;;;;;12.15;1.95;;;3.70;99.90;;;;;;4995459;28;20618;-67
2022/11/22 06:16:28;;;;;;;15.23;2.58;;;3.80;99.90;;;;;;5005390;28;20076;-67
2022/11/22 06:18:54;;;;;;;11.98;1.85;;;3.80;99.90;;;;;;4992571;28;20153;-67
2022/11/22 06:21:22;;;;;;;11.35;1.85;;;3.80;99.90;;;;;;4999866;28;20022;-67
2022/11/22 06:23:48;;;;;;;8.50;1.98;;;3.70;99.90;;;;;;5002652;28;20021;-67
2022/11/22 06:26:16;;;;;;;16.52;2.05;;;3.60;99.90;;;;;;5003088;28;20434;-67
2022/11/22 06:28:42;;;;;;;16.75;5.57;;;3.50;99.90;;;;;;5005434;28;20030;-67
2022/11/22 06:31:11;;;;;;;30.95;11.02;;;3.40;99.90;;;;;;5005363;28;20036;-67
2022/11/22 06:33:38;;;;;;;33.17;12.95;;;3.30;99.90;;;;;;5001166;28;20023;-67
2022/11/22 06:36:06;;;;;;;27.58;7.95;;;3.20;99.90;;;;;;5004598;28;20053;-67
2022/11/22 06:38:32;;;;;;;20.83;6.70;;;3.10;99.90;;;;;;5005150;28;20088;-67
2022/11/22 06:41:02;;;;;;;28.23;10.15;;;3.00;99.90;;;;;;4993470;28;20470;-67
2022/11/22 06:43:32;;;;;;;98.97;33.00;;;2.90;99.90;;;;;;4996203;28;20034;-67
2022/11/22 06:45:59;;;;;;;147.02;48.42;;;2.90;99.90;;;;;;5003113;28;20037;-67
2022/11/22 06:48:35;;;;;;;206.18;66.20;;;2.90;99.90;;;;;;4999942;28;20023;-67
2022/11/22 06:51:02;;;;;;;154.95;57.58;;;2.80;99.90;;;;;;5002917;28;20076;-67
2022/11/22 06:53:29;;;;;;;126.18;49.72;;;2.90;99.90;;;;;;4984916;28;20045;-67
2022/11/22 06:56:03;;;;;;;52.33;24.10;;;2.90;99.90;;;;;;5006322;28;20029;-67
2022/11/22 06:58:28;;;;;;;18.70;7.68;;;2.90;99.90;;;;;;5005851;28;20023;-67
2022/11/22 07:01:06;;;;;;;20.23;5.22;;;2.90;99.90;;;;;;4998039;28;20492;-67
2022/11/22 07:03:34;;;;;;;27.85;6.07;;;2.90;99.90;;;;;;5006890;28;20085;-67
2022/11/22 07:06:00;;;;;;;12.75;3.67;;;3.00;99.90;;;;;;5003225;28;20018;-67
2022/11/22 07:08:26;;;;;;;10.35;3.45;;;3.00;99.90;;;;;;5005519;28;20038;-67
2022/11/22 07:10:52;;;;;;;22.55;3.80;;;3.00;99.90;;;;;;5001319;28;20038;-67
2022/11/22 07:13:18;;;;;;;15.60;1.88;;;3.00;99.90;;;;;;5004430;28;20027;-67
2022/11/22 07:15:53;;;;;;;11.48;3.10;;;3.10;99.90;;;;;;5005681;28;20069;-67
2022/11/22 07:18:18;;;;;;;17.77;3.40;;;3.10;99.90;;;;;;4997784;28;20660;-67
2022/11/22 07:20:44;;;;;;;27.38;3.95;;;3.10;99.90;;;;;;5003806;28;20038;-67
2022/11/22 07:23:11;;;;;;;15.35;3.03;;;3.20;99.90;;;;;;4996273;28;20439;-67
2022/11/22 07:25:36;;;;;;;20.25;2.95;;;3.10;99.90;;;;;;5002065;28;20065;-67
2022/11/22 07:28:02;;;;;;;14.85;2.65;;;3.10;99.90;;;;;;5004723;28;20058;-67
2022/11/22 07:30:28;;;;;;;17.90;3.40;;;3.20;99.90;;;;;;4994996;28;20030;-67
2022/11/22 07:32:53;;;;;;;16.63;3.65;;;3.20;99.90;;;;;;4999854;28;20030;-67
2022/11/22 07:35:19;;;;;;;11.40;2.72;;;3.20;99.90;;;;;;5006666;28;20026;-69
2022/11/22 07:37:45;;;;;;;26.45;3.92;;;3.20;99.90;;;;;;5001718;28;20023;-67
2022/11/22 07:40:12;;;;;;;17.35;5.88;;;3.20;99.90;;;;;;4997003;28;20161;-67
2022/11/22 07:42:37;;;;;;;14.50;5.45;;;3.20;99.90;;;;;;4975090;28;20030;-67
2022/11/22 07:45:03;;;;;;;16.88;6.32;;;3.20;99.90;;;;;;5014650;28;20037;-67
2022/11/22 07:47:28;;;;;;;12.95;3.33;;;3.30;99.90;;;;;;4994118;28;20027;-67
2022/11/22 07:49:54;;;;;;;15.95;5.03;;;3.40;99.90;;;;;;5000155;28;20081;-67
2022/11/22 07:52:19;;;;;;;19.55;4.00;;;3.40;99.90;;;;;;5007056;28;20053;-67
2022/11/22 07:54:45;;;;;;;8.02;2.63;;;3.50;99.90;;;;;;4992121;28;20026;-67
2022/11/22 07:57:11;;;;;;;16.95;2.38;;;3.60;99.90;;;;;;5007470;28;20423;-67
2022/11/22 07:59:36;;;;;;;13.43;2.17;;;3.70;99.90;;;;;;4993392;28;20026;-67
2022/11/22 08:02:02;;;;;;;12.80;2.15;;;3.80;99.90;;;;;;4995446;28;20030;-67
2022/11/22 08:04:27;;;;;;;12.32;2.17;;;3.80;99.90;;;;;;4997050;28;20030;-67
2022/11/22 08:06:53;;;;;;;14.40;2.42;;;3.90;99.90;;;;;;5003073;28;20062;-67
2022/11/22 08:09:18;;;;;;;7.00;1.67;;;4.00;99.90;;;;;;5002147;28;20030;-66
2022/11/22 08:11:44;;;;;;;92.97;29.63;;;4.00;99.90;;;;;;5001722;28;20018;-67
2022/11/22 08:14:10;;;;;;;61.90;21.08;;;4.00;99.90;;;;;;4997739;28;20489;-67
2022/11/22 08:16:36;;;;;;;40.45;12.52;;;4.00;99.90;;;;;;5001120;28;20034;-67
2022/11/22 08:19:01;;;;;;;23.35;6.80;;;4.00;99.90;;;;;;4998035;28;20045;-67
2022/11/22 08:21:27;;;;;;;20.30;6.68;;;4.00;99.90;;;;;;4997284;28;20030;-67
2022/11/22 08:23:57;;;;;;;20.52;6.43;;;4.00;99.90;;;;;;4994523;28;20018;-67
2022/11/22 08:26:22;;;;;;;12.35;4.65;;;4.00;99.90;;;;;;4978170;28;20043;-67
2022/11/22 08:28:48;;;;;;;12.43;3.95;;;4.00;99.90;;;;;;4984282;28;20018;-67
2022/11/22 08:31:17;;;;;;;23.52;4.80;;;4.00;99.90;;;;;;4980462;28;20793;-68
2022/11/22 08:33:43;;;;;;;15.48;4.97;;;4.00;99.90;;;;;;4971368;28;20058;-67
2022/11/22 08:36:09;;;;;;;7.80;3.00;;;4.00;99.90;;;;;;4987130;28;20500;-67
2022/11/22 08:38:35;;;;;;;7.43;1.85;;;4.00;99.90;;;;;;4979761;28;20513;-67
2022/11/22 08:41:02;;;;;;;12.45;2.30;;;4.10;99.90;;;;;;4975123;28;20076;-67
2022/11/22 08:43:28;;;;;;;6.05;1.83;;;4.10;99.90;;;;;;4983630;28;20564;-67
2022/11/22 08:45:56;;;;;;;12.27;1.83;;;4.20;99.90;;;;;;4989718;28;20113;-67
2022/11/22 08:48:22;;;;;;;18.70;2.30;;;4.30;99.90;;;;;;4983604;28;20549;-67
2022/11/22 08:50:59;;;;;;;13.05;2.17;;;4.30;99.90;;;;;;4971315;28;20424;-67
2022/11/22 08:53:26;;;;;;;9.70;1.88;;;4.40;99.90;;;;;;4967156;28;20081;-67
2022/11/22 08:55:53;;;;;;;12.70;3.95;;;4.40;99.90;;;;;;4977497;28;20034;-67
2022/11/22 08:58:19;;;;;;;15.30;4.72;;;4.50;99.90;;;;;;4975186;28;20019;-67
2022/11/22 09:00:44;;;;;;;46.85;17.92;;;4.60;99.90;;;;;;4982185;28;20093;-68
2022/11/22 09:03:10;;;;;;;37.63;13.75;;;4.60;99.90;;;;;;4976469;28;20037;-67
2022/11/22 09:05:35;;;;;;;20.23;4.82;;;4.70;99.90;;;;;;4979433;28;20023;-67
2022/11/22 09:08:01;;;;;;;12.50;2.42;;;4.70;99.90;;;;;;4988213;28;20129;-67
2022/11/22 09:10:26;;;;;;;7.53;1.92;;;4.80;99.90;;;;;;4972845;28;20046;-68
2022/11/22 09:12:52;;;;;;;7.65;2.45;;;4.90;99.90;;;;;;5007855;28;20545;-67
2022/11/22 09:15:18;;;;;;;8.60;2.10;;;4.90;99.90;;;;;;5000003;28;20034;-68
2022/11/22 09:17:43;;;;;;;12.77;2.78;;;5.00;99.90;;;;;;4993426;28;20033;-67
2022/11/22 09:20:10;;;;;;;7.70;1.98;;;5.20;99.90;;;;;;5001687;28;20022;-68
2022/11/22 09:22:36;;;;;;;5.95;1.70;;;5.20;99.90;;;;;;5003977;28;20030;-67
2022/11/22 09:25:03;;;;;;;4.68;1.67;;;5.30;99.90;;;;;;5004162;28;20030;-67
2022/11/22 09:27:28;;;;;;;7.18;2.20;;;5.30;99.90;;;;;;4999506;28;20032;-67
2022/11/22 09:29:54;;;;;;;6.47;1.92;;;5.40;99.90;;;;;;5017338;28;20025;-67
2022/11/22 09:32:19;;;;;;;4.65;1.27;;;5.50;99.90;;;;;;5023882;28;20444;-68
2022/11/22 09:34:45;;;;;;;10.68;3.47;;;5.70;99.90;;;;;;5014303;28;20509;-67
2022/11/22 09:37:10;;;;;;;17.60;5.03;;;5.90;99.90;;;;;;5009858;28;20453;-68
2022/11/22 09:39:37;;;;;;;11.10;2.53;;;6.00;99.90;;;;;;4996703;28;20073;-67
2022/11/22 09:42:26;;;;;;;8.02;2.35;;;6.20;99.90;;;;;;4999723;28;20076;-67
2022/11/22 09:45:19;;;;;;;2.85;1.38;;;6.30;99.90;;;;;;5005185;28;20038;-67
2022/11/22 09:48:05;;;;;;;5.55;2.40;;;6.40;99.90;;;;;;5000934;28;20069;-67
2022/11/22 09:50:57;;;;;;;11.13;1.60;;;6.30;99.90;;;;;;5004388;28;20498;-68
2022/11/22 09:53:34;;;;;;;6.47;1.40;;;6.40;99.90;;;;;;4982762;28;20075;-66
2022/11/22 09:56:03;;;;;;;9.38;1.40;;;6.50;99.90;;;;;;4991036;28;20022;-67
2022/11/22 09:58:35;;;;;;;5.28;2.10;;;6.60;99.90;;;;;;4993992;28;20035;-67
2022/11/22 10:01:20;;;;;;;6.10;1.77;;;6.80;99.90;;;;;;4997046;28;20037;-66
2022/11/22 10:03:48;;;;;;;2.42;1.17;;;7.00;99.90;;;;;;4975476;28;20030;-67
2022/11/22 10:06:31;;;;;;;3.80;2.13;;;7.10;99.90;;;;;;4989836;28;20035;-67
2022/11/22 10:09:19;;;;;;;11.10;3.15;;;7.20;99.90;;;;;;4979486;28;20035;-67
2022/11/22 10:11:59;;;;;;;9.70;2.40;;;7.30;99.90;;;;;;4978534;28;20029;-67
2022/11/22 10:14:58;;;;;;;9.00;1.63;;;7.40;99.90;;;;;;4975474;28;20030;-67
2022/11/22 10:17:44;;;;;;;2.80;1.30;;;7.50;99.90;;;;;;4980284;28;20167;-67
2022/11/22 10:20:25;;;;;;;7.45;1.10;;;7.60;99.90;;;;;;4967557;28;20034;-67
2022/11/22 10:22:51;;;;;;;8.13;1.23;;;7.70;99.90;;;;;;4980240;28;20031;-67
2022/11/22 10:25:30;;;;;;;6.32;1.30;;;7.80;99.90;;;;;;4982354;28;20026;-67
2022/11/22 10:28:04;;;;;;;8.93;1.52;;;7.90;99.90;;;;;;4987166;28;20380;-67
2022/11/22 10:30:35;;;;;;;5.68;1.65;;;8.00;99.90;;;;;;4977210;28;20034;-67
2022/11/22 10:33:10;;;;;;;5.22;1.45;;;8.00;99.90;;;;;;4984594;28;20683;-68
2022/11/22 10:36:13;;;;;;;5.55;2.25;;;7.90;99.90;;;;;;4982382;28;20021;-68
2022/11/22 10:39:06;;;;;;;8.23;1.30;;;7.80;99.90;;;;;;4961433;28;20030;-68
2022/11/22 10:41:42;;;;;;;12.45;1.90;;;7.90;99.90;;;;;;4983169;28;20113;-68
2022/11/22 10:44:10;;;;;;;3.85;0.90;;;7.90;99.90;;;;;;4982694;28;20054;-67
2022/11/22 10:46:54;;;;;;;7.18;2.20;;;8.10;99.90;;;;;;4986705;28;20062;-68
2022/11/22 10:49:34;;;;;;;7.27;2.63;;;8.10;99.90;;;;;;4981699;28;20031;-67
2022/11/22 10:52:28;;;;;;;3.50;1.38;;;8.40;99.90;;;;;;4980882;28;20026;-67
2022/11/22 10:55:18;;;;;;;3.53;1.48;;;8.40;99.90;;;;;;4953209;28;20043;-67
2022/11/22 10:57:56;;;;;;;4.45;0.88;;;8.30;99.90;;;;;;4980522;28;20494;-67
2022/11/22 11:00:23;;;;;;;3.83;1.40;;;8.30;99.90;;;;;;4986608;28;20499;-67
2022/11/22 11:03:10;;;;;;;3.67;1.00;;;8.20;99.90;;;;;;4985567;28;20089;-69
2022/11/22 11:05:48;;;;;;;5.25;1.55;;;8.10;99.90;;;;;;4977926;28;20114;-67
2022/11/22 11:08:23;;;;;;;9.48;1.63;;;8.30;99.90;;;;;;4980978;28;20397;-68
2022/11/22 11:10:49;;;;;;;11.38;1.20;;;8.40;99.90;;;;;;4983656;28;20123;-67
2022/11/22 11:13:27;;;;;;;6.78;1.25;;;8.50;99.90;;;;;;4974202;28;20122;-67
2022/11/22 11:15:55;;;;;;;4.07;1.38;;;8.60;99.90;;;;;;4973487;28;20105;-67
2022/11/22 11:18:36;;;;;;;6.80;1.55;;;8.80;99.90;;;;;;4973452;28;20097;-67
2022/11/22 11:21:06;;;;;;;7.68;2.03;;;8.70;99.90;;;;;;4948920;28;20165;-67
2022/11/22 11:23:32;;;;;;;5.88;1.98;;;8.70;99.90;;;;;;4977787;28;20030;-67
2022/11/22 11:26:27;;;;;;;2.00;0.98;;;8.50;99.90;;;;;;4986624;28;20022;-67
2022/11/22 11:29:17;;;;;;;7.38;1.77;;;8.60;99.90;;;;;;4973783;28;20555;-67
2022/11/22 11:31:46;;;;;;;2.65;1.50;;;9.10;99.90;;;;;;4979646;28;20026;-67
2022/11/22 11:34:24;;;;;;;6.15;1.60;;;9.10;99.90;;;;;;4980994;28;20109;-71
2022/11/22 11:36:53;;;;;;;9.80;4.20;;;9.10;99.90;;;;;;4986310;28;20062;-67
2022/11/22 11:39:26;;;;;;;5.25;2.08;;;9.10;99.90;;;;;;4977139;28;20038;-67
2022/11/22 11:41:52;;;;;;;2.60;1.17;;;8.80;99.90;;;;;;4972961;28;20161;-67
2022/11/22 11:44:35;;;;;;;1.98;0.80;;;8.60;99.90;;;;;;4980382;28;20565;-68
2022/11/22 11:47:02;;;;;;;10.18;2.55;;;8.40;99.90;;;;;;4978747;28;20023;-67
2022/11/22 11:49:30;;;;;;;5.50;1.50;;;8.40;99.90;;;;;;4980799;28;20475;-67
2022/11/22 11:52:00;;;;;;;3.63;1.13;;;8.50;99.90;;;;;;4986049;28;20057;-68
2022/11/22 11:54:31;;;;;;;5.25;1.23;;;8.80;99.90;;;;;;4963520;28;20092;-67
2022/11/22 11:57:04;;;;;;;3.15;1.20;;;8.90;99.90;;;;;;4981417;28;20031;-67
2022/11/22 11:59:39;;;;;;;2.95;0.88;;;9.00;99.90;;;;;;4983369;28;20038;-67
2022/11/22 12:02:21;;;;;;;2.20;0.90;;;8.90;99.90;;;;;;4979544;28;20035;-67
2022/11/22 12:04:59;;;;;;;2.70;0.73;;;8.90;99.90;;;;;;4985534;28;20064;-68
2022/11/22 12:07:27;;;;;;;3.78;1.10;;;8.90;99.90;;;;;;4988525;28;20069;-67
2022/11/22 12:09:54;;;;;;;3.72;1.05;;;8.80;99.90;;;;;;4977030;28;20039;-67
2022/11/22 12:12:26;;;;;;;2.55;1.08;;;8.90;99.90;;;;;;4980622;28;20031;-68
2022/11/22 12:15:10;;;;;;;3.50;1.27;;;8.90;99.90;;;;;;4981579;28;20039;-68
2022/11/22 12:17:45;;;;;;;5.40;1.00;;;8.90;99.90;;;;;;4979246;28;20039;-67
2022/11/22 12:20:18;;;;;;;2.33;0.90;;;8.70;99.90;;;;;;4984370;28;20033;-68
2022/11/22 12:23:11;;;;;;;4.60;1.30;;;8.50;99.90;;;;;;4971570;28;20027;-68
2022/11/22 12:25:41;;;;;;;0.90;0.70;;;8.30;99.90;;;;;;4973483;28;20451;-66
2022/11/22 12:28:16;;;;;;;5.32;1.08;;;8.20;99.90;;;;;;4978200;28;20061;-68
2022/11/22 12:30:43;;;;;;;4.68;0.88;;;8.10;99.90;;;;;;4978855;28;20427;-67
2022/11/22 12:33:21;;;;;;;5.55;0.90;;;8.10;99.90;;;;;;4973085;28;20027;-66
2022/11/22 12:35:48;;;;;;;4.40;0.75;;;8.00;99.90;;;;;;4965750;28;20107;-66
2022/11/22 12:38:22;;;;;;;5.72;0.90;;;8.00;99.90;;;;;;4974737;28;20048;-67
2022/11/22 12:40:55;;;;;;;4.22;0.88;;;8.00;99.90;;;;;;4990825;28;20034;-67
2022/11/22 12:43:28;;;;;;;4.22;1.02;;;8.10;99.90;;;;;;4980123;28;20511;-67
2022/11/22 12:46:01;;;;;;;2.28;0.98;;;8.30;99.90;;;;;;4987770;28;20022;-67
2022/11/22 12:48:33;;;;;;;1.98;0.68;;;8.50;99.90;;;;;;4977137;28;20066;-66
2022/11/22 12:51:06;;;;;;;3.20;0.90;;;8.60;99.90;;;;;;4982925;28;20046;-67
2022/11/22 12:53:36;;;;;;;5.90;1.08;;;8.80;99.90;;;;;;4978354;28;20043;-66
2022/11/22 12:56:26;;;;;;;4.35;0.98;;;8.80;99.90;;;;;;4958280;28;20156;-66
2022/11/22 12:59:12;;;;;;;3.05;0.70;;;8.70;99.90;;;;;;4983915;28;20034;-66
2022/11/22 13:01:47;;;;;;;6.18;0.98;;;8.60;99.90;;;;;;4981072;28;20093;-67
2022/11/22 13:04:31;;;;;;;3.55;1.05;;;8.60;99.90;;;;;;4988609;28;20031;-66
2022/11/22 13:07:12;;;;;;;3.03;0.90;;;8.50;99.90;;;;;;4987816;28;20099;-67
2022/11/22 13:09:46;;;;;;;1.42;0.80;;;8.50;99.90;;;;;;4987983;28;20141;-66
2022/11/22 13:12:16;;;;;;;1.90;0.85;;;8.60;99.90;;;;;;4979802;28;20034;-66
2022/11/22 13:14:52;;;;;;;0.90;0.70;;;8.60;99.90;;;;;;4988503;28;20468;-67
2022/11/22 13:17:19;;;;;;;4.78;1.83;;;8.60;99.90;;;;;;4986462;28;20480;-67
2022/11/22 13:19:52;;;;;;;4.30;0.77;;;8.60;99.90;;;;;;4987012;28;20081;-67
2022/11/22 13:22:39;;;;;;;4.65;0.68;;;8.80;99.90;;;;;;4987611;28;20407;-67
2022/11/22 13:25:38;;;;;;;3.20;0.90;;;8.80;99.90;;;;;;4984097;28;20019;-66